Terminal Aerodrome Forecast
Issued by NWS

Home | Current Version | Previous Version | Text Only | Print | Product List | Glossary On
Versions: 1 2 3 4 5 6 7 8 9 10 11 12 13 14 15 16
000
FTUS43 KAPX 251720
TAFAPN
TAF
KAPN 251720Z 2518/2618 11008KT P6SM SKC
     FM260000 36003KT P6SM SKC
     FM260300 01004KT P6SM OVC050
     FM261300 01006KT P6SM BKN025 OVC040=

USA.gov is the U.S. government's official web portal to all federal, state and local government web resources and services.